createdAt,value
2022-08-31T00:00:24.023Z,17.12
2022-08-31T00:03:11.065Z,17.07
2022-08-31T00:05:38.433Z,17.11
2022-08-31T00:08:05.648Z,17.05
2022-08-31T00:10:36.949Z,17.08
2022-08-31T00:13:06.799Z,17.09
2022-08-31T00:15:35.590Z,17.05
2022-08-31T00:18:05.964Z,17.06
2022-08-31T00:20:34.743Z,17.07
2022-08-31T00:23:02.677Z,17.06
2022-08-31T00:25:29.755Z,16.95
2022-08-31T00:27:56.614Z,16.94
2022-08-31T00:30:23.732Z,16.89
2022-08-31T00:32:50.830Z,16.87
2022-08-31T00:35:20.504Z,16.82
2022-08-31T00:37:47.291Z,16.74
2022-08-31T00:40:14.550Z,16.78
2022-08-31T00:42:41.448Z,16.73
2022-08-31T00:45:10.267Z,16.81
2022-08-31T00:47:37.456Z,16.79
2022-08-31T00:50:07.627Z,16.71
2022-08-31T00:52:38.567Z,16.66
2022-08-31T00:55:11.988Z,16.76
2022-08-31T00:57:42.134Z,16.71
2022-08-31T01:00:12.924Z,16.65
2022-08-31T01:02:41.632Z,16.60
2022-08-31T01:05:09.996Z,16.68
2022-08-31T01:07:41.140Z,16.65
2022-08-31T01:10:10.281Z,16.63
2022-08-31T01:12:37.605Z,16.58
2022-08-31T01:15:08.677Z,16.59
2022-08-31T01:17:36.522Z,16.65
2022-08-31T01:20:11.669Z,16.70
2022-08-31T01:22:49.404Z,16.66
2022-08-31T01:25:18.882Z,16.76
2022-08-31T01:27:46.981Z,16.78
2022-08-31T01:30:22.206Z,16.75
2022-08-31T01:32:49.260Z,16.69
2022-08-31T01:35:16.442Z,16.78
2022-08-31T01:37:44.607Z,16.85
2022-08-31T01:40:12.627Z,16.81
2022-08-31T01:42:41.032Z,16.76
2022-08-31T01:45:11.042Z,16.68
2022-08-31T01:47:38.697Z,16.69
2022-08-31T01:50:06.441Z,16.73
2022-08-31T01:52:34.325Z,16.73
2022-08-31T01:55:03.595Z,16.81
2022-08-31T01:57:34.331Z,16.83
2022-08-31T02:00:29.666Z,16.86
2022-08-31T02:02:58.868Z,16.84
2022-08-31T02:05:25.999Z,16.85
2022-08-31T02:07:53.315Z,16.79
2022-08-31T02:10:20.845Z,16.80
2022-08-31T02:12:47.886Z,16.73
2022-08-31T02:15:14.796Z,16.70
2022-08-31T02:17:43.327Z,16.65
2022-08-31T02:20:13.926Z,16.57
2022-08-31T02:22:40.808Z,16.60
2022-08-31T02:25:10.367Z,16.67
2022-08-31T02:27:38.312Z,16.68
2022-08-31T02:30:09.741Z,16.72
2022-08-31T02:32:36.962Z,16.71
2022-08-31T02:35:06.261Z,16.76
2022-08-31T02:37:32.914Z,16.70
2022-08-31T02:40:02.561Z,16.61
2022-08-31T02:42:52.148Z,16.66
2022-08-31T02:45:18.778Z,16.57
2022-08-31T02:47:45.685Z,16.52
2022-08-31T02:50:21.316Z,16.48
2022-08-31T02:52:50.626Z,16.53
2022-08-31T02:55:18.047Z,16.40
2022-08-31T02:57:50.195Z,16.41
2022-08-31T03:00:18.677Z,16.36
2022-08-31T03:02:45.580Z,16.38
2022-08-31T03:05:12.878Z,16.40
2022-08-31T03:07:41.802Z,16.39
2022-08-31T03:10:14.109Z,16.43
2022-08-31T03:12:41.260Z,16.36
2022-08-31T03:15:09.597Z,16.42
2022-08-31T03:17:36.934Z,16.36
2022-08-31T03:20:06.262Z,16.42
2022-08-31T03:22:34.502Z,16.45
2022-08-31T03:25:04.626Z,16.41
2022-08-31T03:27:32.266Z,16.49
2022-08-31T03:30:00.018Z,16.48
2022-08-31T03:32:31.039Z,16.46
2022-08-31T03:34:59.938Z,16.39
2022-08-31T03:37:27.777Z,16.35
2022-08-31T03:39:59.144Z,16.41
2022-08-31T03:42:28.443Z,16.40
2022-08-31T03:44:59.100Z,16.31
2022-08-31T03:47:29.552Z,16.31
2022-08-31T03:49:58.061Z,16.28
2022-08-31T03:52:29.613Z,16.19
2022-08-31T03:55:02.159Z,16.10
2022-08-31T03:57:30.437Z,16.13
2022-08-31T03:59:58.302Z,16.10
2022-08-31T04:02:41.416Z,16.05
2022-08-31T04:05:23.616Z,16.03
2022-08-31T04:08:08.452Z,16.02
2022-08-31T04:10:54.366Z,15.94
2022-08-31T04:13:41.328Z,15.92
2022-08-31T04:16:16.139Z,15.84
2022-08-31T04:19:10.127Z,15.76
2022-08-31T04:21:45.935Z,15.68
2022-08-31T04:24:13.238Z,15.64
2022-08-31T04:26:41.049Z,15.52
2022-08-31T04:29:13.274Z,15.52
2022-08-31T04:31:40.939Z,15.53
2022-08-31T04:34:08.084Z,15.56
2022-08-31T04:36:35.236Z,15.55
2022-08-31T04:39:04.109Z,15.60
2022-08-31T04:41:32.995Z,15.57
2022-08-31T04:44:01.355Z,15.38
2022-08-31T04:46:31.860Z,15.38
2022-08-31T04:48:59.228Z,15.42
2022-08-31T04:51:29.458Z,15.40
2022-08-31T04:53:57.500Z,15.41
2022-08-31T04:56:25.961Z,15.38
2022-08-31T04:58:54.543Z,15.36
2022-08-31T05:01:23.943Z,15.34
2022-08-31T05:04:12.707Z,15.47
2022-08-31T05:06:41.476Z,15.39
2022-08-31T05:09:11.357Z,15.29
2022-08-31T05:11:42.734Z,15.23
2022-08-31T05:14:09.950Z,15.29
2022-08-31T05:16:42.019Z,15.25
2022-08-31T05:19:10.524Z,15.25
2022-08-31T05:21:39.491Z,15.27
2022-08-31T05:24:09.563Z,15.30
2022-08-31T05:26:42.169Z,15.38
2022-08-31T05:29:10.284Z,15.46
2022-08-31T05:31:37.771Z,15.45
2022-08-31T05:34:06.135Z,15.49
2022-08-31T05:36:40.749Z,15.50
2022-08-31T05:39:11.906Z,15.49
2022-08-31T05:41:40.579Z,15.47
2022-08-31T05:44:08.347Z,15.51
2022-08-31T05:46:37.365Z,15.53
2022-08-31T05:49:06.279Z,15.53
2022-08-31T05:51:38.584Z,15.61
2022-08-31T05:54:08.183Z,15.76
2022-08-31T05:56:35.947Z,15.80
2022-08-31T05:59:03.245Z,15.78
2022-08-31T06:01:34.047Z,15.75
2022-08-31T06:04:13.961Z,15.82
2022-08-31T06:06:42.531Z,15.81
2022-08-31T06:09:13.894Z,15.84
2022-08-31T06:11:42.318Z,15.82
2022-08-31T06:14:13.140Z,15.98
2022-08-31T06:16:43.921Z,16.06
2022-08-31T06:19:11.612Z,16.07
2022-08-31T06:21:49.833Z,16.13
2022-08-31T06:24:24.086Z,16.13
2022-08-31T06:26:58.277Z,16.16
2022-08-31T06:29:32.003Z,16.13
2022-08-31T06:32:01.025Z,16.11
2022-08-31T06:34:29.573Z,16.22
2022-08-31T06:37:06.820Z,16.23
2022-08-31T06:39:45.076Z,16.27
2022-08-31T06:42:44.435Z,16.29
2022-08-31T06:45:28.096Z,16.32
2022-08-31T06:48:13.594Z,16.32
2022-08-31T06:50:41.543Z,16.39
2022-08-31T06:53:09.802Z,16.43
2022-08-31T06:55:56.754Z,16.46
2022-08-31T06:58:42.584Z,16.52
2022-08-31T07:01:41.847Z,16.62
2022-08-31T07:04:19.294Z,16.64
2022-08-31T07:06:46.550Z,16.67
2022-08-31T07:09:17.978Z,16.69
2022-08-31T07:11:49.168Z,16.66
2022-08-31T07:14:18.835Z,16.73
2022-08-31T07:16:46.238Z,16.78
2022-08-31T07:19:15.166Z,16.78
2022-08-31T07:21:46.069Z,16.87
2022-08-31T07:24:15.254Z,16.94
2022-08-31T07:26:48.079Z,16.86
2022-08-31T07:29:22.766Z,16.91
2022-08-31T07:31:50.674Z,16.96
2022-08-31T07:34:21.550Z,16.92
2022-08-31T07:37:20.095Z,17.02
2022-08-31T07:40:08.161Z,17.01
2022-08-31T07:42:39.981Z,16.94
2022-08-31T07:45:12.674Z,17.05
2022-08-31T07:47:45.468Z,17.02
2022-08-31T07:50:14.912Z,17.14
2022-08-31T07:52:55.773Z,17.18
2022-08-31T07:55:42.104Z,17.17
2022-08-31T07:58:30.379Z,17.21
2022-08-31T08:01:00.114Z,17.26
2022-08-31T08:03:30.149Z,17.33
2022-08-31T08:06:17.578Z,17.52
2022-08-31T08:09:24.553Z,17.59
2022-08-31T08:12:07.384Z,17.50
2022-08-31T08:15:00.007Z,17.74
2022-08-31T08:17:50.345Z,18.03
2022-08-31T08:20:34.353Z,18.16
2022-08-31T08:23:08.302Z,18.25
2022-08-31T08:26:07.671Z,18.33
2022-08-31T08:28:57.287Z,18.61
2022-08-31T08:31:29.186Z,18.58
2022-08-31T08:33:56.634Z,18.84
2022-08-31T08:36:24.418Z,19.12
2022-08-31T08:38:54.173Z,19.48
2022-08-31T08:41:27.634Z,19.67
2022-08-31T08:43:57.558Z,19.66
2022-08-31T08:47:38.236Z,19.05
2022-08-31T08:49:34.940Z,18.99
2022-08-31T08:52:11.524Z,18.80
2022-08-31T08:54:42.368Z,18.66
2022-08-31T08:57:14.658Z,18.83
2022-08-31T08:59:43.908Z,18.81
2022-08-31T09:02:18.163Z,18.74
2022-08-31T09:05:21.853Z,18.57
2022-08-31T09:08:29.233Z,18.60
2022-08-31T09:11:06.421Z,18.57
2022-08-31T09:13:44.805Z,18.82
2022-08-31T09:16:26.223Z,18.93
2022-08-31T09:18:59.282Z,19.11
2022-08-31T09:21:30.989Z,18.91
2022-08-31T09:24:02.353Z,19.11
2022-08-31T09:26:54.451Z,19.23
2022-08-31T09:29:33.175Z,19.13
2022-08-31T09:32:06.344Z,19.03
2022-08-31T09:34:37.412Z,19.33
2022-08-31T09:37:15.039Z,19.22
2022-08-31T09:39:47.666Z,19.20
2022-08-31T09:42:20.584Z,19.27
2022-08-31T09:44:50.236Z,19.38
2022-08-31T09:47:43.313Z,20.06
2022-08-31T09:50:25.564Z,20.90
2022-08-31T09:53:23.817Z,21.61
2022-08-31T09:56:05.707Z,21.92
2022-08-31T09:58:34.873Z,22.17
2022-08-31T10:01:13.414Z,21.99
2022-08-31T10:03:45.486Z,23.27
2022-08-31T10:06:27.259Z,22.95
2022-08-31T10:09:00.083Z,22.75
2022-08-31T10:11:31.148Z,23.27
2022-08-31T10:14:04.664Z,23.92
2022-08-31T10:16:37.925Z,24.73
2022-08-31T10:19:06.674Z,23.81
2022-08-31T10:21:44.056Z,23.79
2022-08-31T10:24:28.501Z,24.42
2022-08-31T10:27:04.397Z,24.23
2022-08-31T10:29:36.321Z,24.54
2022-08-31T10:32:14.703Z,24.79
2022-08-31T10:35:00.439Z,24.89
2022-08-31T10:37:37.054Z,24.85
2022-08-31T10:40:09.018Z,25.12
2022-08-31T10:42:39.222Z,25.03
2022-08-31T10:45:16.309Z,25.52
2022-08-31T10:47:49.235Z,24.84
2022-08-31T10:50:23.200Z,24.71
2022-08-31T10:53:03.771Z,25.59
2022-08-31T10:55:33.617Z,24.50
2022-08-31T10:58:08.374Z,25.01
2022-08-31T11:00:45.691Z,25.44
2022-08-31T11:03:22.016Z,26.43
2022-08-31T11:05:54.804Z,26.23
2022-08-31T11:08:38.904Z,25.72
2022-08-31T11:11:11.323Z,26.32
2022-08-31T11:14:03.564Z,25.55
2022-08-31T11:16:55.290Z,26.53
2022-08-31T11:19:38.617Z,26.43
2022-08-31T11:22:29.049Z,25.41
2022-08-31T11:25:28.569Z,25.47
2022-08-31T11:28:01.542Z,24.98
2022-08-31T11:30:32.985Z,25.40
2022-08-31T11:33:06.070Z,26.24
2022-08-31T11:36:06.049Z,25.95
2022-08-31T11:38:50.280Z,26.04
2022-08-31T11:41:43.584Z,25.53
2022-08-31T11:44:46.995Z,25.90
2022-08-31T11:47:34.783Z,26.52
2022-08-31T11:50:05.944Z,25.77
2022-08-31T11:52:48.376Z,26.55
2022-08-31T11:55:27.218Z,26.77
2022-08-31T11:58:32.938Z,26.28
2022-08-31T12:01:09.416Z,26.40
2022-08-31T12:03:43.928Z,26.37
2022-08-31T12:06:29.743Z,26.49
2022-08-31T12:09:13.725Z,26.52
2022-08-31T12:11:52.779Z,26.01
2022-08-31T12:14:25.472Z,26.56
2022-08-31T12:17:05.117Z,26.14
2022-08-31T12:20:02.442Z,27.01
2022-08-31T12:23:15.321Z,27.56
2022-08-31T12:26:15.434Z,26.96
2022-08-31T12:29:03.870Z,26.98
2022-08-31T12:31:34.739Z,25.38
2022-08-31T12:34:05.949Z,26.36
2022-08-31T12:36:35.649Z,24.91
2022-08-31T12:39:08.253Z,25.15
2022-08-31T12:41:35.799Z,25.16
2022-08-31T12:44:03.841Z,25.53
2022-08-31T12:46:45.469Z,25.13
2022-08-31T12:49:30.065Z,25.23
2022-08-31T12:52:07.380Z,25.39
2022-08-31T12:55:14.236Z,24.32
2022-08-31T12:57:50.842Z,24.24
2022-08-31T13:00:26.352Z,24.61
2022-08-31T13:02:57.726Z,24.24
2022-08-31T13:05:28.639Z,23.96
2022-08-31T13:07:56.618Z,23.30
2022-08-31T13:10:30.908Z,23.27
2022-08-31T13:13:00.463Z,23.67
2022-08-31T13:15:29.316Z,23.57
2022-08-31T13:17:58.431Z,23.71
2022-08-31T13:20:33.061Z,23.95
2022-08-31T13:23:05.535Z,23.55
2022-08-31T13:25:36.233Z,23.23
2022-08-31T13:28:07.336Z,22.99
2022-08-31T13:30:39.773Z,22.61
2022-08-31T13:33:23.207Z,22.47
2022-08-31T13:35:52.684Z,22.82
2022-08-31T13:38:36.532Z,22.98
2022-08-31T13:41:05.968Z,22.81
2022-08-31T13:43:37.353Z,22.57
2022-08-31T13:46:05.001Z,22.78
2022-08-31T13:48:38.094Z,23.08
2022-08-31T13:51:13.182Z,22.82
2022-08-31T13:53:41.168Z,22.79
2022-08-31T13:56:43.053Z,22.90
2022-08-31T13:59:17.744Z,22.89
2022-08-31T14:02:37.256Z,22.98
2022-08-31T14:05:11.061Z,22.72
2022-08-31T14:08:08.326Z,22.89
2022-08-31T14:10:37.785Z,23.16
2022-08-31T14:13:15.599Z,23.20
2022-08-31T14:15:52.498Z,23.60
2022-08-31T14:18:37.799Z,23.42
2022-08-31T14:21:27.701Z,23.17
2022-08-31T14:24:00.564Z,23.24
2022-08-31T14:26:29.644Z,23.50
2022-08-31T14:29:00.380Z,23.60
2022-08-31T14:31:31.206Z,23.36
2022-08-31T14:34:22.524Z,23.48
2022-08-31T14:36:54.244Z,23.47
2022-08-31T14:39:23.664Z,23.37
2022-08-31T14:41:50.912Z,22.80
2022-08-31T14:44:21.644Z,22.51
2022-08-31T14:46:48.535Z,22.93
2022-08-31T14:49:16.192Z,22.86
2022-08-31T14:51:43.898Z,22.65
2022-08-31T14:54:12.218Z,22.95
2022-08-31T14:56:46.864Z,22.93
2022-08-31T14:59:16.241Z,22.77
2022-08-31T15:01:45.003Z,22.77
2022-08-31T15:04:13.839Z,22.52
2022-08-31T15:06:41.878Z,22.57
2022-08-31T15:09:09.100Z,22.63
2022-08-31T15:11:37.509Z,22.74
2022-08-31T15:14:06.071Z,22.78
2022-08-31T15:16:33.161Z,22.71
2022-08-31T15:19:00.280Z,22.63
2022-08-31T15:21:27.148Z,22.51
2022-08-31T15:23:54.149Z,22.43
2022-08-31T15:26:21.673Z,22.33
2022-08-31T15:28:52.630Z,22.20
2022-08-31T15:31:21.965Z,22.06
2022-08-31T15:33:49.817Z,21.92
2022-08-31T15:36:18.510Z,21.91
2022-08-31T15:38:45.760Z,21.53
2022-08-31T15:41:12.943Z,21.31
2022-08-31T15:43:41.587Z,21.32
2022-08-31T15:46:13.774Z,21.20
2022-08-31T15:48:45.344Z,21.01
2022-08-31T15:51:18.555Z,20.94
2022-08-31T15:54:00.805Z,20.86
2022-08-31T15:56:33.294Z,20.92
2022-08-31T15:59:01.733Z,20.81
2022-08-31T16:01:29.969Z,20.73
2022-08-31T16:03:58.145Z,20.70
2022-08-31T16:06:28.027Z,20.66
2022-08-31T16:08:55.432Z,20.62
2022-08-31T16:11:24.468Z,20.66
2022-08-31T16:13:58.490Z,20.58
2022-08-31T16:16:29.820Z,20.54
2022-08-31T16:19:04.421Z,20.38
2022-08-31T16:21:34.736Z,20.44
2022-08-31T16:24:04.008Z,20.34
2022-08-31T16:26:31.944Z,20.28
2022-08-31T16:29:00.763Z,20.24
2022-08-31T16:31:29.587Z,20.20
2022-08-31T16:33:56.625Z,20.31
2022-08-31T16:36:26.996Z,20.31
2022-08-31T16:38:54.733Z,19.92
2022-08-31T16:41:24.263Z,19.84
2022-08-31T16:44:09.430Z,19.89
2022-08-31T16:46:40.932Z,19.68
2022-08-31T16:49:26.931Z,19.70
2022-08-31T16:51:55.895Z,19.75
2022-08-31T16:54:26.178Z,19.67
2022-08-31T16:56:53.211Z,19.59
2022-08-31T16:59:20.050Z,19.58
2022-08-31T17:01:47.034Z,19.58
2022-08-31T17:04:24.755Z,19.53
2022-08-31T17:07:04.966Z,19.34
2022-08-31T17:09:31.914Z,19.32
2022-08-31T17:12:01.108Z,19.25
2022-08-31T17:14:32.441Z,19.25
2022-08-31T17:17:03.544Z,19.20
2022-08-31T17:19:31.480Z,19.15
2022-08-31T17:22:01.013Z,19.13
2022-08-31T17:24:32.098Z,19.13
2022-08-31T17:27:01.436Z,19.06
2022-08-31T17:29:32.244Z,19.02
2022-08-31T17:32:07.171Z,19.03
2022-08-31T17:34:35.688Z,18.99
2022-08-31T17:37:05.103Z,18.91
2022-08-31T17:39:33.499Z,18.91
2022-08-31T17:42:00.906Z,18.87
2022-08-31T17:44:31.055Z,18.78
2022-08-31T17:46:59.835Z,18.73
2022-08-31T17:49:28.530Z,18.70
2022-08-31T17:52:04.207Z,18.72
2022-08-31T17:54:32.843Z,18.71
2022-08-31T17:57:03.098Z,18.59
2022-08-31T17:59:31.900Z,18.59
2022-08-31T18:02:00.905Z,18.47
2022-08-31T18:04:29.425Z,18.49
2022-08-31T18:06:57.533Z,18.40
2022-08-31T18:09:27.145Z,18.32
2022-08-31T18:11:54.621Z,18.26
2022-08-31T18:14:25.456Z,18.20
2022-08-31T18:16:54.274Z,18.14
2022-08-31T18:19:27.482Z,18.13
2022-08-31T18:21:55.718Z,18.10
2022-08-31T18:24:22.948Z,18.17
2022-08-31T18:26:51.389Z,18.07
2022-08-31T18:29:23.912Z,18.02
2022-08-31T18:31:54.321Z,18.03
2022-08-31T18:34:24.131Z,17.95
2022-08-31T18:36:52.197Z,17.96
2022-08-31T18:39:49.952Z,17.94
2022-08-31T18:42:32.388Z,17.91
2022-08-31T18:45:18.799Z,17.87
2022-08-31T18:50:42.461Z,17.81
2022-08-31T18:53:10.902Z,17.76
2022-08-31T18:55:42.588Z,17.78
2022-08-31T18:58:09.587Z,17.77
2022-08-31T19:00:37.063Z,17.69
2022-08-31T19:03:17.214Z,17.69
2022-08-31T19:05:48.049Z,17.53
2022-08-31T19:08:15.764Z,17.40
2022-08-31T19:10:43.247Z,17.63
2022-08-31T19:13:10.990Z,17.38
2022-08-31T19:15:40.172Z,17.47
2022-08-31T19:18:09.241Z,17.53
2022-08-31T19:20:36.402Z,17.47
2022-08-31T19:23:03.631Z,17.40
2022-08-31T19:25:32.139Z,17.40
2022-08-31T19:28:01.612Z,17.40
2022-08-31T19:30:29.457Z,17.34
2022-08-31T19:32:56.584Z,17.35
2022-08-31T19:35:27.172Z,17.31
2022-08-31T19:37:56.486Z,17.22
2022-08-31T19:40:36.525Z,17.28
2022-08-31T19:45:54.594Z,17.22
2022-08-31T19:48:23.947Z,17.12
2022-08-31T19:50:53.876Z,17.15
2022-08-31T19:53:23.145Z,17.17
2022-08-31T19:55:52.846Z,16.95
2022-08-31T19:58:25.525Z,17.07
2022-08-31T20:01:00.649Z,17.07
2022-08-31T20:03:28.309Z,17.09
2022-08-31T20:05:57.028Z,17.02
2022-08-31T20:08:23.956Z,16.92
2022-08-31T20:10:51.024Z,17.01
2022-08-31T20:13:28.420Z,16.87
2022-08-31T20:15:56.157Z,16.95
2022-08-31T20:18:28.294Z,16.86
2022-08-31T20:20:57.019Z,16.79
2022-08-31T20:23:24.003Z,16.83
2022-08-31T20:25:51.612Z,16.86
2022-08-31T20:28:23.366Z,16.79
2022-08-31T20:30:50.917Z,16.77
2022-08-31T20:33:17.726Z,16.74
2022-08-31T20:35:47.612Z,16.71
2022-08-31T20:38:17.648Z,16.72
2022-08-31T20:40:49.105Z,16.78
2022-08-31T20:43:16.080Z,16.77
2022-08-31T20:45:43.095Z,16.67
2022-08-31T20:48:28.839Z,16.72
2022-08-31T20:50:57.220Z,16.79
2022-08-31T20:53:42.417Z,16.78
2022-08-31T20:56:12.955Z,16.66
2022-08-31T20:58:44.781Z,16.59
2022-08-31T21:01:13.694Z,16.59
2022-08-31T21:03:41.040Z,16.51
2022-08-31T21:06:11.784Z,16.63
2022-08-31T21:08:42.354Z,16.47
2022-08-31T21:11:11.391Z,16.54
2022-08-31T21:13:38.378Z,16.52
2022-08-31T21:16:05.775Z,16.49
2022-08-31T21:18:34.707Z,16.48
2022-08-31T21:21:08.323Z,16.45
2022-08-31T21:23:36.977Z,16.47
2022-08-31T21:26:08.878Z,16.42
2022-08-31T21:28:38.737Z,16.48
2022-08-31T21:31:15.460Z,16.42
2022-08-31T21:33:44.235Z,16.16
2022-08-31T21:36:13.348Z,16.38
2022-08-31T21:38:40.216Z,16.33
2022-08-31T21:41:10.740Z,16.33
2022-08-31T21:43:38.355Z,16.39
2022-08-31T21:46:07.228Z,16.32
2022-08-31T21:48:36.753Z,16.29
2022-08-31T21:51:10.792Z,16.41
2022-08-31T21:53:37.907Z,16.24
2022-08-31T21:56:05.269Z,16.34
2022-08-31T21:58:33.889Z,16.34
2022-08-31T22:01:01.274Z,16.23
2022-08-31T22:03:28.224Z,16.19
2022-08-31T22:05:54.994Z,16.22
2022-08-31T22:08:24.273Z,16.30
2022-08-31T22:10:51.494Z,16.33
2022-08-31T22:13:19.712Z,16.32
2022-08-31T22:15:48.353Z,16.31
2022-08-31T22:18:59.045Z,16.19
2022-08-31T22:21:05.235Z,16.26
2022-08-31T22:23:33.638Z,16.34
2022-08-31T22:26:01.445Z,16.23
2022-08-31T22:28:28.623Z,16.33
2022-08-31T22:30:56.827Z,16.22
2022-08-31T22:33:23.849Z,16.07
2022-08-31T22:35:50.667Z,16.09
2022-08-31T22:38:19.366Z,16.16
2022-08-31T22:40:50.101Z,16.15
2022-08-31T22:43:17.795Z,16.14
2022-08-31T22:45:48.372Z,16.14
2022-08-31T22:48:17.079Z,16.07
2022-08-31T22:50:43.921Z,15.98
2022-08-31T22:53:10.824Z,16.05
2022-08-31T22:55:38.380Z,15.96
2022-08-31T22:58:05.629Z,15.97
2022-08-31T23:00:32.765Z,15.93
2022-08-31T23:02:59.581Z,16.02
2022-08-31T23:05:27.828Z,16.08
2022-08-31T23:07:54.835Z,16.02
2022-08-31T23:10:24.131Z,16.04
2022-08-31T23:12:56.245Z,16.15
2022-08-31T23:15:23.183Z,16.07
2022-08-31T23:17:51.604Z,16.06
2022-08-31T23:20:24.031Z,16.04
2022-08-31T23:22:53.256Z,16.06
2022-08-31T23:25:22.579Z,16.04
2022-08-31T23:27:50.554Z,15.97
2022-08-31T23:30:20.051Z,16.03
2022-08-31T23:32:48.492Z,16.19
2022-08-31T23:35:18.614Z,16.27
2022-08-31T23:37:45.984Z,16.18
2022-08-31T23:40:16.111Z,16.22
2022-08-31T23:42:43.042Z,16.16
2022-08-31T23:45:11.165Z,16.12
2022-08-31T23:47:38.878Z,16.02
2022-08-31T23:50:08.427Z,15.98
2022-08-31T23:52:37.693Z,15.93
2022-08-31T23:55:07.090Z,15.97
2022-08-31T23:57:35.913Z,15.99
